Time;durP1;ratioP1;P1;durP2;ratioP2;P2;SDS_P1;SDS_P2;PMS_P1;PMS_P2;Temp;Humidity;BMP_temperature;BMP_pressure;BME280_temperature;BME280_humidity;BME280_pressure;Samples;Min_cycle;Max_cycle;Signal;HPM_P1;HPM_P2
2022/09/17 00:00:20;;;;;;;1.57;0.70;;;10.00;99.90;;;;;;5014191;28;20478;-74
2022/09/17 00:02:54;;;;;;;2.10;0.70;;;10.00;99.90;;;;;;5014348;28;20195;-74
2022/09/17 00:05:23;;;;;;;2.30;0.70;;;10.00;99.90;;;;;;5014986;28;20421;-73
2022/09/17 00:07:52;;;;;;;2.33;1.00;;;10.00;99.90;;;;;;5014587;28;20798;-73
2022/09/17 00:10:19;;;;;;;1.00;0.90;;;9.90;99.90;;;;;;5014456;28;20503;-74
2022/09/17 00:12:45;;;;;;;2.20;0.97;;;9.90;99.90;;;;;;5014580;28;20459;-73
2022/09/17 00:15:11;;;;;;;1.43;0.60;;;9.90;99.90;;;;;;5014572;28;20407;-72
2022/09/17 00:17:37;;;;;;;0.70;0.70;;;9.90;99.90;;;;;;5014628;28;20419;-74
2022/09/17 00:20:03;;;;;;;0.93;0.83;;;9.80;99.90;;;;;;5014230;28;20184;-74
2022/09/17 00:22:29;;;;;;;1.13;0.97;;;9.80;99.90;;;;;;5014684;28;20212;-73
2022/09/17 00:24:54;;;;;;;2.27;0.73;;;9.80;99.90;;;;;;5014155;28;20449;-74
2022/09/17 00:27:20;;;;;;;1.23;1.03;;;9.80;99.90;;;;;;5014013;28;20662;-73
2022/09/17 00:29:47;;;;;;;1.40;0.93;;;9.80;99.90;;;;;;5013886;28;20212;-72
2022/09/17 00:32:12;;;;;;;1.80;1.33;;;9.80;99.90;;;;;;5013740;28;20222;-73
2022/09/17 00:34:38;;;;;;;0.63;0.63;;;9.80;99.90;;;;;;5014118;28;20800;-73
2022/09/17 00:37:03;;;;;;;1.10;0.70;;;9.90;99.90;;;;;;5013862;28;20177;-74
2022/09/17 00:39:29;;;;;;;1.90;0.70;;;9.90;99.90;;;;;;5013806;28;20185;-73
2022/09/17 00:41:54;;;;;;;1.20;1.10;;;9.90;99.90;;;;;;5013520;28;20568;-74
2022/09/17 00:44:56;;;;;;;2.33;0.93;;;9.90;99.90;;;;;;5013645;28;20184;-74
2022/09/17 00:47:34;;;;;;;8.37;1.43;;;9.90;99.90;;;;;;4972202;28;20186;-73
2022/09/17 00:50:07;;;;;;;0.70;0.70;;;10.00;99.90;;;;;;5008756;28;20472;-73
2022/09/17 00:52:40;;;;;;;11.47;1.43;;;10.00;99.90;;;;;;5013454;28;20584;-74
2022/09/17 00:55:22;;;;;;;2.60;0.87;;;10.00;99.90;;;;;;5013606;28;20408;-73
2022/09/17 00:57:49;;;;;;;2.57;0.93;;;10.00;99.90;;;;;;5013750;28;20408;-73
2022/09/17 02:30:53;;;;;;;2.17;1.40;;;9.80;99.90;;;;;;6005648;22;20383;-71
2022/09/17 02:33:20;;;;;;;3.60;1.33;;;9.80;99.90;;;;;;5042681;28;20525;-72
2022/09/17 02:35:46;;;;;;;3.73;1.20;;;9.80;99.90;;;;;;5051323;28;20406;-72
2022/09/17 02:38:11;;;;;;;1.90;1.13;;;9.90;99.90;;;;;;5051689;28;20476;-72
2022/09/17 02:40:47;;;;;;;3.17;1.20;;;9.80;99.90;;;;;;5051664;28;20408;-72
2022/09/17 02:43:29;;;;;;;1.90;1.07;;;9.90;99.90;;;;;;5051758;28;20240;-72
2022/09/17 02:46:19;;;;;;;4.97;1.10;;;9.90;99.90;;;;;;5051574;28;20402;-71
2022/09/17 02:49:14;;;;;;;5.70;1.20;;;9.90;99.90;;;;;;5051833;28;20418;-72
2022/09/17 02:51:46;;;;;;;8.23;1.17;;;9.90;99.90;;;;;;5051407;28;20430;-71
2022/09/17 02:54:29;;;;;;;1.23;1.13;;;10.00;99.90;;;;;;5051753;28;20837;-72
2022/09/17 02:57:06;;;;;;;1.70;1.30;;;9.90;99.90;;;;;;5051619;28;20415;-71
2022/09/17 02:59:41;;;;;;;2.57;1.10;;;9.80;99.90;;;;;;5051725;28;20406;-72
2022/09/17 03:02:21;;;;;;;2.57;1.00;;;9.80;99.90;;;;;;5051471;28;20500;-72
2022/09/17 03:04:48;;;;;;;3.23;1.10;;;9.80;99.90;;;;;;5051749;28;20500;-72
2022/09/17 03:07:17;;;;;;;1.30;1.20;;;9.70;99.90;;;;;;5051368;28;20508;-73
2022/09/17 03:09:43;;;;;;;5.07;1.03;;;9.60;99.90;;;;;;5051432;28;20977;-72
2022/09/17 03:12:10;;;;;;;4.17;1.33;;;9.60;99.90;;;;;;5051063;28;20439;-72
2022/09/17 03:14:36;;;;;;;5.47;0.90;;;9.50;99.90;;;;;;5051543;28;20541;-72
2022/09/17 03:17:02;;;;;;;1.63;0.83;;;9.50;99.90;;;;;;5051277;28;20422;-72
2022/09/17 03:19:27;;;;;;;1.50;1.00;;;9.40;99.90;;;;;;5051380;28;20418;-72
2022/09/17 03:21:53;;;;;;;4.57;1.30;;;9.40;99.90;;;;;;5051156;28;20444;-72
2022/09/17 03:24:18;;;;;;;1.63;1.40;;;9.30;99.90;;;;;;5051453;28;20180;-71
2022/09/17 03:26:46;;;;;;;2.00;1.80;;;9.30;99.90;;;;;;5051479;28;20211;-72
2022/09/17 03:29:12;;;;;;;1.13;1.03;;;9.30;99.90;;;;;;5051389;28;20204;-72
2022/09/17 03:31:37;;;;;;;4.50;1.60;;;9.30;99.90;;;;;;5051137;28;20444;-72
2022/09/17 03:34:03;;;;;;;3.37;1.20;;;9.30;99.90;;;;;;5052724;28;20410;-73
2022/09/17 03:36:29;;;;;;;10.10;1.53;;;9.30;99.90;;;;;;5054106;28;20179;-72
2022/09/17 03:38:55;;;;;;;1.67;1.30;;;9.30;99.90;;;;;;5054859;28;20172;-73
2022/09/17 03:41:20;;;;;;;4.33;1.17;;;9.30;99.90;;;;;;5054577;28;20194;-71
2022/09/17 03:43:46;;;;;;;2.40;1.53;;;9.30;99.90;;;;;;5054946;28;20453;-72
2022/09/17 03:46:11;;;;;;;2.20;1.13;;;9.20;99.90;;;;;;5055299;28;20196;-72
2022/09/17 03:48:38;;;;;;;2.80;1.33;;;9.20;99.90;;;;;;5054921;28;20326;-71
2022/09/17 03:51:05;;;;;;;4.00;1.30;;;9.20;99.90;;;;;;5054082;28;20232;-72
2022/09/17 03:53:31;;;;;;;1.40;1.30;;;9.20;99.90;;;;;;5054657;28;20785;-73
2022/09/17 03:55:59;;;;;;;4.10;1.70;;;9.10;99.90;;;;;;5054333;28;20423;-72
2022/09/17 03:58:25;;;;;;;2.00;1.03;;;9.10;99.90;;;;;;5055517;28;20429;-72
2022/09/17 04:00:52;;;;;;;1.03;1.03;;;9.10;99.90;;;;;;5055524;28;20424;-73
2022/09/17 04:03:18;;;;;;;5.03;1.03;;;9.00;99.90;;;;;;5054953;28;20181;-71
2022/09/17 04:05:43;;;;;;;3.80;1.63;;;9.00;99.90;;;;;;5054813;28;20434;-71
2022/09/17 04:08:09;;;;;;;4.40;1.80;;;9.00;99.90;;;;;;5054377;28;20420;-73
2022/09/17 04:10:34;;;;;;;1.67;1.33;;;9.00;99.90;;;;;;5054536;28;20206;-71
2022/09/17 04:13:00;;;;;;;2.30;1.37;;;9.00;99.90;;;;;;5054265;28;20762;-72
2022/09/17 04:15:25;;;;;;;2.63;1.33;;;9.00;99.90;;;;;;5054402;28;20178;-71
2022/09/17 04:17:56;;;;;;;3.67;1.30;;;9.00;99.90;;;;;;5054355;28;20184;-72
2022/09/17 04:20:22;;;;;;;2.10;1.43;;;9.10;99.90;;;;;;5054371;28;20268;-71
2022/09/17 04:22:47;;;;;;;7.93;1.67;;;9.10;99.90;;;;;;5054329;28;20477;-72
2022/09/17 04:25:13;;;;;;;4.80;1.53;;;9.10;99.90;;;;;;5054258;28;20677;-72
2022/09/17 04:27:38;;;;;;;4.83;1.43;;;9.10;99.90;;;;;;5054237;28;20188;-72
2022/09/17 04:30:04;;;;;;;3.80;1.37;;;9.10;99.90;;;;;;5053839;28;20207;-70
2022/09/17 04:32:30;;;;;;;1.37;1.20;;;9.10;99.90;;;;;;5054013;28;20208;-71
2022/09/17 04:34:55;;;;;;;5.80;1.27;;;9.10;99.90;;;;;;5053898;28;20467;-71
2022/09/17 04:37:22;;;;;;;5.00;1.50;;;9.10;99.90;;;;;;5054043;28;20645;-72
2022/09/17 04:39:48;;;;;;;4.00;1.20;;;9.20;99.90;;;;;;5053958;28;20511;-71
2022/09/17 04:42:14;;;;;;;7.60;1.30;;;9.20;99.90;;;;;;5053655;28;20483;-73
2022/09/17 04:44:40;;;;;;;3.57;1.30;;;9.20;99.90;;;;;;5053987;28;20238;-72
2022/09/17 04:47:05;;;;;;;2.13;1.40;;;9.20;99.90;;;;;;5053027;28;20810;-71
2022/09/17 04:49:31;;;;;;;4.03;1.40;;;9.30;99.90;;;;;;5052878;28;20209;-72
2022/09/17 04:51:57;;;;;;;1.73;1.20;;;9.40;99.90;;;;;;5053405;28;20210;-73
2022/09/17 04:54:23;;;;;;;2.30;1.50;;;9.40;99.90;;;;;;5053665;28;20419;-72
2022/09/17 04:56:49;;;;;;;3.23;1.67;;;9.30;99.90;;;;;;5053685;28;20183;-72
2022/09/17 04:59:14;;;;;;;5.77;1.83;;;9.40;99.90;;;;;;5053461;28;20180;-73
2022/09/17 05:01:42;;;;;;;2.50;1.47;;;9.40;99.90;;;;;;5053199;28;20438;-72
2022/09/17 05:04:07;;;;;;;4.40;1.77;;;9.40;99.90;;;;;;5053537;28;20249;-72
2022/09/17 05:06:33;;;;;;;2.40;1.63;;;9.40;99.90;;;;;;5053468;28;20920;-72
2022/09/17 05:08:59;;;;;;;3.87;1.30;;;9.50;99.90;;;;;;5053286;28;20232;-74
2022/09/17 05:11:24;;;;;;;4.87;2.53;;;9.50;99.90;;;;;;5053513;28;20651;-72
2022/09/17 05:13:50;;;;;;;6.37;1.83;;;9.50;99.90;;;;;;5053431;28;20188;-73
2022/09/17 05:16:16;;;;;;;1.90;1.80;;;9.50;99.90;;;;;;5053332;28;20174;-72
2022/09/17 05:18:41;;;;;;;6.27;2.20;;;9.50;99.90;;;;;;5053562;28;20180;-71
2022/09/17 05:21:07;;;;;;;3.13;1.60;;;9.50;99.90;;;;;;5053115;28;20285;-71
2022/09/17 05:23:32;;;;;;;4.30;1.70;;;9.50;99.90;;;;;;5053199;28;20227;-72
2022/09/17 05:25:59;;;;;;;2.60;1.33;;;9.50;99.90;;;;;;5053009;28;20192;-74
2022/09/17 05:28:25;;;;;;;5.40;1.30;;;9.50;99.90;;;;;;5053194;28;20186;-72
2022/09/17 05:30:51;;;;;;;1.57;1.47;;;9.50;99.90;;;;;;5052628;28;20598;-71
2022/09/17 05:33:18;;;;;;;2.93;1.60;;;9.60;99.90;;;;;;5052815;28;20544;-73
2022/09/17 05:35:43;;;;;;;2.20;1.20;;;9.60;99.90;;;;;;5053002;28;20174;-72
2022/09/17 05:38:09;;;;;;;6.30;1.40;;;9.70;99.90;;;;;;5052427;28;20431;-71
2022/09/17 05:40:36;;;;;;;5.27;1.70;;;9.70;99.90;;;;;;5052590;28;20178;-68
2022/09/17 05:43:04;;;;;;;7.13;1.70;;;9.70;99.90;;;;;;5052396;28;20182;-71
2022/09/17 05:45:32;;;;;;;2.60;1.80;;;9.80;99.90;;;;;;5052728;28;20921;-72
2022/09/17 05:47:59;;;;;;;4.40;1.40;;;9.80;99.90;;;;;;5052446;28;20483;-71
2022/09/17 05:50:26;;;;;;;2.60;1.63;;;9.80;99.90;;;;;;5052255;28;20826;-71
2022/09/17 05:52:52;;;;;;;1.47;1.37;;;9.90;99.90;;;;;;5052221;28;20461;-71
2022/09/17 05:55:21;;;;;;;6.40;1.60;;;9.90;99.90;;;;;;5051022;28;20464;-72
2022/09/17 05:57:50;;;;;;;1.93;1.60;;;10.10;99.90;;;;;;5052113;28;20419;-73
2022/09/17 06:00:16;;;;;;;5.87;1.80;;;10.70;99.90;;;;;;5051028;28;20404;-73
2022/09/17 06:02:41;;;;;;;9.33;1.60;;;11.80;99.90;;;;;;5052013;28;20466;-72
2022/09/17 06:05:07;;;;;;;5.40;1.47;;;13.20;99.90;;;;;;5051947;28;20415;-73
2022/09/17 06:07:36;;;;;;;8.73;1.13;;;14.40;99.90;;;;;;5051996;28;20185;-73
2022/09/17 06:10:04;;;;;;;2.73;1.37;;;14.40;99.90;;;;;;5052749;28;20451;-71
2022/09/17 06:12:29;;;;;;;6.73;1.20;;;14.40;99.90;;;;;;5034612;28;20822;-73
2022/09/17 06:14:55;;;;;;;1.80;1.40;;;14.60;99.90;;;;;;5051757;28;20412;-73
2022/09/17 06:17:20;;;;;;;2.90;1.47;;;14.20;99.90;;;;;;5051745;28;20166;-73
2022/09/17 06:19:46;;;;;;;3.20;1.17;;;13.50;99.90;;;;;;5051691;28;20598;-71
2022/09/17 06:22:11;;;;;;;6.30;1.40;;;12.90;99.90;;;;;;5051661;28;20227;-73
2022/09/17 06:24:37;;;;;;;4.87;1.60;;;12.60;99.90;;;;;;5051696;28;20260;-73
2022/09/17 06:27:03;;;;;;;3.90;1.73;;;12.20;99.90;;;;;;5051955;28;20546;-73
2022/09/17 06:29:29;;;;;;;6.53;1.93;;;11.80;99.90;;;;;;5052447;28;20205;-73
2022/09/17 06:31:54;;;;;;;10.33;2.40;;;11.70;99.90;;;;;;5051872;28;20542;-72
2022/09/17 06:34:20;;;;;;;5.80;1.40;;;11.70;99.90;;;;;;5052619;28;20256;-73
2022/09/17 06:36:47;;;;;;;7.23;2.30;;;11.70;99.90;;;;;;5051530;28;20181;-73
2022/09/17 06:39:13;;;;;;;10.63;2.40;;;11.50;99.90;;;;;;5050286;28;20663;-72
2022/09/17 06:41:41;;;;;;;6.97;1.93;;;11.40;99.90;;;;;;5051408;28;20465;-72
2022/09/17 06:44:06;;;;;;;3.40;1.20;;;11.30;99.90;;;;;;5051936;28;20604;-73
2022/09/17 06:46:32;;;;;;;2.57;2.10;;;11.20;99.90;;;;;;5051698;28;20446;-73
2022/09/17 06:48:57;;;;;;;6.40;2.30;;;11.10;99.90;;;;;;5051397;28;20218;-72
2022/09/17 06:51:23;;;;;;;6.37;2.00;;;11.10;99.90;;;;;;5051299;28;20250;-72
2022/09/17 06:53:48;;;;;;;3.43;2.20;;;11.10;99.90;;;;;;5051595;28;20251;-73
2022/09/17 06:56:14;;;;;;;2.60;1.33;;;11.10;99.90;;;;;;5051422;28;20275;-73
2022/09/17 06:58:43;;;;;;;5.43;1.77;;;11.00;99.90;;;;;;5051827;28;20605;-73
2022/09/17 07:01:10;;;;;;;5.03;2.40;;;11.00;99.90;;;;;;5051119;28;20203;-73
2022/09/17 07:03:36;;;;;;;2.13;1.70;;;10.90;99.90;;;;;;5051571;28;20910;-72
2022/09/17 07:06:03;;;;;;;2.97;1.37;;;10.90;99.90;;;;;;5051189;28;20419;-72
2022/09/17 07:08:30;;;;;;;6.23;1.73;;;10.90;99.90;;;;;;5051452;28;20462;-73
2022/09/17 07:10:56;;;;;;;9.63;2.50;;;10.80;99.90;;;;;;5053063;28;21089;-72
2022/09/17 07:13:22;;;;;;;8.83;2.10;;;10.70;99.90;;;;;;5055571;28;20710;-73
2022/09/17 07:15:53;;;;;;;4.50;1.90;;;10.50;99.90;;;;;;5055336;28;20464;-73
2022/09/17 07:18:19;;;;;;;2.03;1.83;;;10.50;99.90;;;;;;5055436;28;20784;-73
2022/09/17 07:20:52;;;;;;;6.50;1.77;;;10.30;99.90;;;;;;5055119;28;20411;-72
2022/09/17 07:23:18;;;;;;;3.37;1.77;;;10.20;99.90;;;;;;5055361;28;20176;-72
2022/09/17 07:25:43;;;;;;;4.47;2.30;;;10.10;99.90;;;;;;5055232;28;20440;-73
2022/09/17 07:28:09;;;;;;;4.63;2.30;;;10.10;99.90;;;;;;5055011;28;20721;-73
2022/09/17 07:30:34;;;;;;;4.53;2.07;;;10.10;99.90;;;;;;5054570;28;20205;-70
2022/09/17 07:33:01;;;;;;;5.50;2.67;;;10.10;99.90;;;;;;5054616;28;20226;-73
2022/09/17 07:35:26;;;;;;;10.33;2.03;;;10.10;99.90;;;;;;5055322;28;20597;-74
2022/09/17 07:37:52;;;;;;;3.10;2.90;;;10.00;99.90;;;;;;5054631;28;20416;-73
2022/09/17 07:40:18;;;;;;;2.47;2.27;;;10.00;99.90;;;;;;5054680;28;20177;-73
2022/09/17 07:42:43;;;;;;;6.83;2.83;;;10.00;99.90;;;;;;5054659;28;20496;-74
2022/09/17 07:45:09;;;;;;;7.50;2.30;;;10.00;99.90;;;;;;5054650;28;20176;-73
2022/09/17 07:47:39;;;;;;;6.40;3.30;;;10.00;99.90;;;;;;5054521;28;20179;-74
2022/09/17 07:50:05;;;;;;;5.70;2.70;;;10.00;99.90;;;;;;5054187;28;20210;-74
2022/09/17 07:52:31;;;;;;;3.97;1.80;;;10.00;99.90;;;;;;5054154;28;20432;-73
2022/09/17 07:54:56;;;;;;;3.53;2.17;;;10.00;99.90;;;;;;5054405;28;20908;-73
2022/09/17 07:57:22;;;;;;;2.13;1.90;;;10.10;99.90;;;;;;5054457;28;20171;-73
2022/09/17 07:59:47;;;;;;;1.97;1.87;;;10.20;99.90;;;;;;5054275;28;20188;-74
2022/09/17 08:02:13;;;;;;;3.10;2.03;;;10.50;99.90;;;;;;5054285;28;20211;-74
2022/09/17 08:04:41;;;;;;;3.13;1.77;;;10.60;99.90;;;;;;5054479;28;20207;-74
2022/09/17 08:07:10;;;;;;;3.70;2.10;;;10.70;99.90;;;;;;5054133;28;20183;-74
2022/09/17 08:09:36;;;;;;;6.20;2.40;;;10.60;99.90;;;;;;5054162;28;20462;-73
2022/09/17 08:12:01;;;;;;;3.00;2.73;;;10.60;99.90;;;;;;5053881;28;20438;-73
2022/09/17 08:14:27;;;;;;;5.10;3.10;;;10.60;99.90;;;;;;5054662;28;20195;-73
2022/09/17 08:16:52;;;;;;;10.13;2.77;;;10.60;99.90;;;;;;5054158;28;20218;-73
2022/09/17 08:19:18;;;;;;;11.33;3.27;;;10.60;99.90;;;;;;5054049;28;20672;-73
2022/09/17 08:21:44;;;;;;;11.63;2.37;;;10.60;99.90;;;;;;5052920;28;20193;-73
2022/09/17 08:24:09;;;;;;;7.77;2.40;;;10.70;99.90;;;;;;5054070;28;20465;-74
2022/09/17 08:26:35;;;;;;;7.23;3.73;;;10.90;99.90;;;;;;5054190;28;20210;-73
2022/09/17 08:29:01;;;;;;;16.73;3.73;;;11.00;99.90;;;;;;5053702;28;20188;-73
2022/09/17 08:31:28;;;;;;;4.90;2.37;;;11.10;99.90;;;;;;5053660;28;20220;-74
2022/09/17 08:33:54;;;;;;;8.30;3.07;;;11.20;99.90;;;;;;5053816;28;20476;-73
2022/09/17 08:36:21;;;;;;;7.00;2.70;;;11.30;99.90;;;;;;5053934;28;20418;-73
2022/09/17 08:38:51;;;;;;;4.97;3.10;;;11.40;99.90;;;;;;5053830;28;20173;-74
2022/09/17 08:41:29;;;;;;;5.43;2.70;;;11.50;99.90;;;;;;5053164;28;20440;-74
2022/09/17 08:44:03;;;;;;;9.73;2.70;;;11.50;99.90;;;;;;5053534;28;20423;-74
2022/09/17 08:46:56;;;;;;;5.07;2.73;;;11.60;99.90;;;;;;5053817;28;20422;-74
2022/09/17 08:49:42;;;;;;;5.43;3.00;;;11.70;99.90;;;;;;5051133;28;20462;-73
2022/09/17 08:52:14;;;;;;;12.00;3.10;;;11.90;99.90;;;;;;5053392;28;20497;-73
2022/09/17 08:54:57;;;;;;;12.10;2.60;;;12.50;99.90;;;;;;5053594;28;20412;-73
2022/09/17 08:57:35;;;;;;;7.43;2.70;;;13.30;99.90;;;;;;5053610;28;20412;-74
2022/09/17 09:00:06;;;;;;;5.70;1.87;;;13.90;99.90;;;;;;5054148;28;20423;-73
2022/09/17 09:02:42;;;;;;;4.57;2.17;;;14.30;99.90;;;;;;5053975;28;20467;-73
2022/09/17 09:05:07;;;;;;;9.50;2.17;;;14.40;99.90;;;;;;5053720;28;20481;-72
2022/09/17 09:07:42;;;;;;;2.50;2.23;;;14.10;99.90;;;;;;5052509;28;20427;-73
2022/09/17 09:10:16;;;;;;;5.50;2.80;;;13.80;99.90;;;;;;5052955;28;20562;-73
2022/09/17 09:12:42;;;;;;;7.20;2.40;;;13.50;99.90;;;;;;5053039;28;20435;-73
2022/09/17 09:15:35;;;;;;;7.37;2.63;;;13.40;99.90;;;;;;5053060;28;20485;-73
2022/09/17 09:18:11;;;;;;;6.57;2.40;;;13.20;99.90;;;;;;5053177;28;20408;-73
2022/09/17 09:20:45;;;;;;;8.30;1.80;;;13.00;99.90;;;;;;5052960;28;20442;-73
2022/09/17 09:23:31;;;;;;;4.07;1.80;;;12.60;99.90;;;;;;5052961;28;20419;-73
2022/09/17 09:26:13;;;;;;;3.80;2.10;;;12.50;99.90;;;;;;5053048;28;20843;-73
2022/09/17 09:29:06;;;;;;;20.43;2.70;;;12.40;99.90;;;;;;5052869;28;20407;-73
2022/09/17 09:31:59;;;;;;;11.83;3.17;;;12.30;99.90;;;;;;5052221;28;20494;-73
2022/09/17 09:34:27;;;;;;;5.77;2.30;;;12.30;99.90;;;;;;5052615;28;20436;-73
2022/09/17 09:37:22;;;;;;;10.60;2.53;;;12.40;99.90;;;;;;5052508;28;20415;-73
2022/09/17 09:39:50;;;;;;;6.57;2.30;;;12.60;99.90;;;;;;5049472;28;20416;-73
2022/09/17 09:42:21;;;;;;;5.70;2.37;;;12.60;99.90;;;;;;5052176;28;20964;-73
2022/09/17 09:44:48;;;;;;;3.90;1.97;;;12.60;99.90;;;;;;5052523;28;20775;-73
2022/09/17 09:47:41;;;;;;;6.30;2.03;;;12.60;99.90;;;;;;5052278;28;20404;-73
2022/09/17 09:50:22;;;;;;;7.00;2.47;;;12.70;99.90;;;;;;5052077;28;20817;-72
2022/09/17 09:53:07;;;;;;;6.63;3.70;;;12.60;99.90;;;;;;5052168;28;20943;-73
2022/09/17 09:55:54;;;;;;;4.70;1.80;;;12.60;99.90;;;;;;5052504;28;20412;-73
2022/09/17 09:58:25;;;;;;;9.50;2.27;;;12.50;99.90;;;;;;5052420;28;20415;-73
2022/09/17 10:00:51;;;;;;;6.90;2.47;;;12.60;99.90;;;;;;5052420;28;20411;-73
2022/09/17 10:03:27;;;;;;;11.20;2.53;;;12.90;99.90;;;;;;5052044;28;20507;-73
2022/09/17 10:06:00;;;;;;;4.43;2.37;;;13.20;99.90;;;;;;5052217;28;20173;-74
2022/09/17 10:08:28;;;;;;;5.80;2.40;;;13.50;99.90;;;;;;5052334;28;20939;-74
2022/09/17 10:11:01;;;;;;;5.00;2.27;;;13.70;99.90;;;;;;5051436;28;20513;-73
2022/09/17 10:13:29;;;;;;;3.07;1.47;;;13.70;99.90;;;;;;5052100;28;20422;-73
2022/09/17 10:15:56;;;;;;;5.07;1.77;;;13.80;99.90;;;;;;5051916;28;20434;-73
2022/09/17 10:18:24;;;;;;;6.93;1.60;;;14.00;99.90;;;;;;5052061;28;20494;-73
2022/09/17 10:20:55;;;;;;;3.13;1.50;;;14.80;99.90;;;;;;5051877;28;20404;-73
2022/09/17 10:23:22;;;;;;;3.00;1.17;;;15.40;99.90;;;;;;5051857;28;20419;-73
2022/09/17 10:25:48;;;;;;;5.03;1.23;;;16.20;99.90;;;;;;5051972;28;20495;-73
2022/09/17 10:28:34;;;;;;;4.80;1.20;;;16.50;99.90;;;;;;5051729;28;20449;-73
2022/09/17 10:31:09;;;;;;;8.33;2.00;;;16.40;99.90;;;;;;5051423;28;20560;-73
2022/09/17 10:33:38;;;;;;;4.50;1.67;;;16.70;99.90;;;;;;5052640;28;20414;-73
2022/09/17 10:36:12;;;;;;;4.50;1.43;;;16.60;99.90;;;;;;5051925;28;20412;-73
2022/09/17 10:38:40;;;;;;;5.50;1.73;;;16.70;99.90;;;;;;5051663;28;20418;-73
2022/09/17 10:41:09;;;;;;;4.70;1.23;;;17.10;99.90;;;;;;5051225;28;20431;-74
2022/09/17 10:43:35;;;;;;;4.67;1.00;;;17.70;99.90;;;;;;5051878;28;20760;-74
2022/09/17 10:46:02;;;;;;;4.33;1.87;;;18.00;99.90;;;;;;5050891;28;20771;-73
2022/09/17 10:48:32;;;;;;;1.30;1.20;;;17.40;99.90;;;;;;5051897;28;20469;-73
2022/09/17 10:50:58;;;;;;;5.13;1.53;;;16.90;99.90;;;;;;5051072;28;20582;-73
2022/09/17 10:53:25;;;;;;;3.97;1.50;;;16.70;99.90;;;;;;5051549;28;20437;-73
2022/09/17 10:56:02;;;;;;;3.47;1.20;;;16.70;99.90;;;;;;5051501;28;20486;-73
2022/09/17 10:58:42;;;;;;;3.47;1.67;;;16.30;99.90;;;;;;5051657;28;20954;-73
2022/09/17 11:01:59;;;;;;;6.40;1.77;;;17.10;99.90;;;;;;5050991;28;20839;-73
2022/09/17 11:04:53;;;;;;;3.20;1.10;;;17.70;99.90;;;;;;5049243;28;20438;-73
2022/09/17 11:07:46;;;;;;;3.60;1.73;;;17.50;99.90;;;;;;5051377;28;20499;-73
2022/09/17 11:10:15;;;;;;;8.87;1.77;;;18.20;99.90;;;;;;5051238;28;20460;-73
2022/09/17 11:12:58;;;;;;;3.23;1.03;;;18.50;99.90;;;;;;5051216;28;20506;-74
2022/09/17 11:15:53;;;;;;;5.07;1.10;;;18.00;99.90;;;;;;5051437;28;20410;-74
2022/09/17 11:18:31;;;;;;;1.70;0.90;;;17.50;99.90;;;;;;5051199;28;20412;-73
2022/09/17 11:21:15;;;;;;;2.03;0.90;;;17.30;99.90;;;;;;5050968;28;20796;-73
2022/09/17 11:24:13;;;;;;;5.10;1.07;;;16.90;99.90;;;;;;5051141;28;20427;-73
2022/09/17 11:26:59;;;;;;;3.40;1.40;;;16.70;99.90;;;;;;5051308;28;20465;-73
2022/09/17 11:29:45;;;;;;;4.50;1.43;;;16.90;99.90;;;;;;5050854;28;20542;-73
2022/09/17 11:32:18;;;;;;;1.57;0.97;;;17.10;99.90;;;;;;5050652;28;20955;-73
2022/09/17 11:34:59;;;;;;;2.20;1.10;;;17.20;99.90;;;;;;5051132;28;20411;-73
2022/09/17 11:37:31;;;;;;;4.27;1.27;;;17.00;99.90;;;;;;5051048;28;20415;-74
2022/09/17 11:40:10;;;;;;;5.33;1.30;;;17.10;99.90;;;;;;5051104;28;20838;-73
2022/09/17 11:42:45;;;;;;;3.33;1.07;;;17.30;99.90;;;;;;5050737;28;20531;-73
2022/09/17 11:45:17;;;;;;;2.33;1.10;;;17.60;99.90;;;;;;5050937;28;20915;-73
2022/09/17 11:47:52;;;;;;;2.07;0.80;;;17.70;99.90;;;;;;5050902;28;20423;-73
2022/09/17 11:50:27;;;;;;;3.33;1.03;;;18.10;99.90;;;;;;5051233;28;20964;-74
2022/09/17 11:53:07;;;;;;;4.60;1.37;;;18.00;99.90;;;;;;5050770;28;20431;-74
2022/09/17 11:55:46;;;;;;;2.93;1.13;;;18.50;99.90;;;;;;5051052;28;20400;-73
2022/09/17 11:58:33;;;;;;;2.20;0.90;;;18.60;99.90;;;;;;5052881;28;20422;-73
2022/09/17 12:01:04;;;;;;;2.63;1.43;;;18.30;99.90;;;;;;5054225;28;20530;-73
2022/09/17 12:03:36;;;;;;;4.43;1.27;;;17.90;99.90;;;;;;5054481;28;20450;-74
2022/09/17 12:06:13;;;;;;;2.90;1.00;;;17.40;99.90;;;;;;5054460;28;20503;-73
2022/09/17 12:08:56;;;;;;;2.73;1.00;;;17.20;99.90;;;;;;5052888;28;20805;-73
2022/09/17 12:11:30;;;;;;;2.83;0.90;;;16.60;99.90;;;;;;5054056;28;20463;-73
2022/09/17 12:14:02;;;;;;;2.10;1.07;;;15.90;99.90;;;;;;5054290;28;20444;-74
2022/09/17 12:16:39;;;;;;;3.30;0.90;;;15.40;99.90;;;;;;5054355;28;20826;-73
2022/09/17 12:19:27;;;;;;;3.60;1.27;;;15.10;99.90;;;;;;5054306;28;20415;-74
2022/09/17 12:21:58;;;;;;;10.07;1.20;;;15.00;99.90;;;;;;5054219;28;20459;-73
2022/09/17 12:24:26;;;;;;;2.90;1.00;;;14.80;99.90;;;;;;5054310;28;20503;-74
2022/09/17 12:27:22;;;;;;;4.17;1.50;;;14.60;99.90;;;;;;5054315;28;20435;-74
2022/09/17 12:30:04;;;;;;;5.03;2.37;;;14.40;99.90;;;;;;5055314;28;20466;-73
2022/09/17 12:32:49;;;;;;;4.30;1.60;;;14.60;99.90;;;;;;5054593;28;20859;-73
2022/09/17 12:35:55;;;;;;;3.13;1.00;;;14.90;99.90;;;;;;5053894;28;20537;-74
2022/09/17 12:38:39;;;;;;;2.00;1.20;;;15.20;99.90;;;;;;5053694;28;20455;-73
2022/09/17 12:41:15;;;;;;;4.57;1.37;;;15.40;99.90;;;;;;5053251;28;20526;-74
2022/09/17 12:43:58;;;;;;;3.70;1.13;;;15.20;99.90;;;;;;5053582;28;20514;-74
2022/09/17 12:46:52;;;;;;;1.47;1.00;;;14.80;99.90;;;;;;5053836;28;20914;-73
2022/09/17 12:50:02;;;;;;;2.93;1.00;;;14.40;99.90;;;;;;5053358;28;20448;-73
2022/09/17 12:52:48;;;;;;;1.43;0.80;;;14.00;99.90;;;;;;5053401;28;20534;-73
2022/09/17 12:55:23;;;;;;;7.03;0.80;;;13.90;99.90;;;;;;5053321;28;20419;-72
2022/09/17 12:57:54;;;;;;;1.63;0.90;;;13.60;99.90;;;;;;5053408;28;20900;-73
2022/09/17 13:00:21;;;;;;;2.33;0.97;;;13.40;99.90;;;;;;5053129;28;20858;-73
2022/09/17 13:02:59;;;;;;;2.23;0.90;;;13.40;99.90;;;;;;5053101;28;20443;-73
2022/09/17 13:05:53;;;;;;;1.43;1.03;;;13.20;99.90;;;;;;5053444;28;20482;-73
2022/09/17 13:08:57;;;;;;;3.43;1.00;;;13.00;99.90;;;;;;5052813;28;20793;-73
2022/09/17 13:11:25;;;;;;;2.60;1.20;;;12.70;99.90;;;;;;5046017;28;20475;-73
2022/09/17 13:14:16;;;;;;;0.90;0.80;;;12.60;99.90;;;;;;5053134;28;20502;-73
2022/09/17 13:16:53;;;;;;;3.77;1.10;;;12.50;99.90;;;;;;5052990;28;20858;-73
2022/09/17 13:19:51;;;;;;;3.07;1.43;;;12.50;99.90;;;;;;5053048;28;20896;-73
2022/09/17 13:22:20;;;;;;;1.77;0.73;;;12.40;99.90;;;;;;5052975;28;21007;-73
2022/09/17 13:24:47;;;;;;;1.57;1.10;;;12.40;99.90;;;;;;5053347;28;20427;-74
2022/09/17 13:27:22;;;;;;;0.70;0.70;;;12.50;99.90;;;;;;5053121;28;20797;-73
2022/09/17 13:29:53;;;;;;;3.13;0.80;;;12.60;99.90;;;;;;5053015;28;20470;-73
2022/09/17 13:32:34;;;;;;;2.60;0.83;;;12.60;99.90;;;;;;5052681;28;20447;-74
2022/09/17 13:35:08;;;;;;;3.07;0.80;;;12.70;99.90;;;;;;5052591;28;20400;-74
2022/09/17 13:37:39;;;;;;;1.60;1.27;;;12.80;99.90;;;;;;5052675;28;20415;-73
2022/09/17 13:40:21;;;;;;;4.37;1.00;;;12.90;99.90;;;;;;5052631;28;20419;-73
2022/09/17 13:42:50;;;;;;;1.60;0.90;;;13.00;99.90;;;;;;5052304;28;20787;-72
2022/09/17 13:45:17;;;;;;;0.60;0.60;;;13.10;99.90;;;;;;5052490;28;20423;-73
2022/09/17 13:48:04;;;;;;;3.40;0.90;;;13.20;99.90;;;;;;5052420;28;20993;-73
2022/09/17 13:50:34;;;;;;;1.70;0.90;;;13.20;99.90;;;;;;5052594;28;20478;-73
2022/09/17 13:53:11;;;;;;;2.87;1.47;;;13.30;99.90;;;;;;5052030;28;20412;-73
2022/09/17 13:55:47;;;;;;;2.57;0.73;;;13.40;99.90;;;;;;5052426;28;20419;-73
2022/09/17 13:58:28;;;;;;;3.10;1.10;;;13.40;99.90;;;;;;5052461;28;20411;-73
2022/09/17 14:01:10;;;;;;;2.10;0.93;;;13.60;99.90;;;;;;5052326;28;20459;-73
2022/09/17 14:03:40;;;;;;;1.87;0.90;;;13.70;99.90;;;;;;5052118;28;20441;-73
2022/09/17 14:06:16;;;;;;;1.53;0.80;;;13.70;99.90;;;;;;5052287;28;20413;-73
2022/09/17 14:08:54;;;;;;;2.30;1.47;;;13.80;99.90;;;;;;5052589;28;20473;-73
2022/09/17 14:11:25;;;;;;;2.67;1.10;;;13.90;99.90;;;;;;5051654;28;20840;-73
2022/09/17 14:13:54;;;;;;;2.03;1.00;;;13.90;99.90;;;;;;5052058;28;20461;-72
2022/09/17 14:19:01;;;;;;;7.93;1.20;;;14.00;99.90;;;;;;5051790;28;20408;-73
2022/09/17 14:21:33;;;;;;;1.70;1.07;;;14.10;99.90;;;;;;5051126;28;20423;-73
2022/09/17 14:24:20;;;;;;;1.87;1.00;;;14.10;99.90;;;;;;5051705;28;20430;-73
2022/09/17 14:27:02;;;;;;;4.20;1.20;;;14.10;99.90;;;;;;5050634;28;20457;-72
2022/09/17 14:29:45;;;;;;;1.30;0.90;;;14.20;99.90;;;;;;5051465;28;20466;-73
2022/09/17 14:32:19;;;;;;;2.40;0.77;;;14.30;99.90;;;;;;5051300;28;20478;-73
2022/09/17 14:34:45;;;;;;;2.50;1.20;;;14.30;99.90;;;;;;5051660;28;20506;-73
2022/09/17 14:37:16;;;;;;;2.70;1.20;;;14.30;99.90;;;;;;5051515;28;20424;-73
2022/09/17 14:39:43;;;;;;;1.90;1.00;;;14.20;99.90;;;;;;5051653;28;20429;-73
2022/09/17 14:42:21;;;;;;;1.60;0.80;;;14.10;99.90;;;;;;5051216;28;20452;-73
2022/09/17 14:44:58;;;;;;;1.87;0.97;;;14.10;99.90;;;;;;5051476;28;20950;-73
2022/09/17 14:47:25;;;;;;;2.50;1.43;;;14.20;99.90;;;;;;5051496;28;20435;-74